sensor_id;sensor_type;location;lat;lon;timestamp;pressure;altitude;pressure_sealevel;temperature;humidity
62948;BME280;51940;52.126;-0.994;2023-02-28T00:00:15;102329.95;;;2.68;100.00
62948;BME280;51940;52.126;-0.994;2023-02-28T00:02:41;102328.36;;;2.68;100.00
62948;BME280;51940;52.126;-0.994;2023-02-28T00:05:07;102326.60;;;2.68;100.00
62948;BME280;51940;52.126;-0.994;2023-02-28T00:07:33;102326.34;;;2.65;100.00
62948;BME280;51940;52.126;-0.994;2023-02-28T00:09:58;102327.48;;;2.64;100.00
62948;BME280;51940;52.126;-0.994;2023-02-28T00:12:24;102330.08;;;2.62;100.00
62948;BME280;51940;52.126;-0.994;2023-02-28T00:14:50;102331.94;;;2.60;100.00
62948;BME280;51940;52.126;-0.994;2023-02-28T00:17:15;102333.48;;;2.59;100.00
62948;BME280;51940;52.126;-0.994;2023-02-28T00:19:43;102330.23;;;2.57;100.00
62948;BME280;51940;52.126;-0.994;2023-02-28T00:22:08;102326.41;;;2.54;100.00
62948;BME280;51940;52.126;-0.994;2023-02-28T00:24:33;102328.60;;;2.51;100.00
62948;BME280;51940;52.126;-0.994;2023-02-28T00:26:59;102336.05;;;2.48;100.00
62948;BME280;51940;52.126;-0.994;2023-02-28T00:29:24;102335.00;;;2.44;100.00
62948;BME280;51940;52.126;-0.994;2023-02-28T00:31:52;102337.88;;;2.41;100.00
62948;BME280;51940;52.126;-0.994;2023-02-28T00:34:17;102338.58;;;2.37;100.00
62948;BME280;51940;52.126;-0.994;2023-02-28T00:36:43;102340.41;;;2.34;100.00
62948;BME280;51940;52.126;-0.994;2023-02-28T00:39:10;102343.30;;;2.32;100.00
62948;BME280;51940;52.126;-0.994;2023-02-28T00:41:36;102346.74;;;2.30;100.00
62948;BME280;51940;52.126;-0.994;2023-02-28T00:44:01;102346.34;;;2.29;100.00
62948;BME280;51940;52.126;-0.994;2023-02-28T00:46:26;102346.67;;;2.29;100.00
62948;BME280;51940;52.126;-0.994;2023-02-28T00:48:52;102345.11;;;2.30;100.00
62948;BME280;51940;52.126;-0.994;2023-02-28T00:51:17;102339.69;;;2.30;100.00
62948;BME280;51940;52.126;-0.994;2023-02-28T00:53:42;102342.55;;;2.31;100.00
62948;BME280;51940;52.126;-0.994;2023-02-28T00:56:07;102334.30;;;2.31;100.00
62948;BME280;51940;52.126;-0.994;2023-02-28T00:58:33;102335.06;;;2.33;100.00
62948;BME280;51940;52.126;-0.994;2023-02-28T01:01:00;102335.67;;;2.35;100.00
62948;BME280;51940;52.126;-0.994;2023-02-28T01:03:25;102334.67;;;2.36;100.00
62948;BME280;51940;52.126;-0.994;2023-02-28T01:05:50;102339.52;;;2.39;100.00
62948;BME280;51940;52.126;-0.994;2023-02-28T01:08:18;102340.68;;;2.41;100.00
62948;BME280;51940;52.126;-0.994;2023-02-28T01:10:43;102339.35;;;2.43;100.00
62948;BME280;51940;52.126;-0.994;2023-02-28T01:13:08;102343.48;;;2.45;100.00
62948;BME280;51940;52.126;-0.994;2023-02-28T01:15:34;102346.17;;;2.46;100.00
62948;BME280;51940;52.126;-0.994;2023-02-28T01:17:59;102353.14;;;2.48;100.00
62948;BME280;51940;52.126;-0.994;2023-02-28T01:20:24;102351.05;;;2.49;100.00
62948;BME280;51940;52.126;-0.994;2023-02-28T01:22:50;102354.98;;;2.50;100.00
62948;BME280;51940;52.126;-0.994;2023-02-28T01:25:15;102357.13;;;2.51;100.00
62948;BME280;51940;52.126;-0.994;2023-02-28T01:27:40;102355.23;;;2.52;100.00
62948;BME280;51940;52.126;-0.994;2023-02-28T01:30:09;102361.08;;;2.54;100.00
62948;BME280;51940;52.126;-0.994;2023-02-28T01:32:35;102359.72;;;2.55;100.00
62948;BME280;51940;52.126;-0.994;2023-02-28T01:35:00;102363.28;;;2.56;100.00
62948;BME280;51940;52.126;-0.994;2023-02-28T01:37:25;102357.16;;;2.57;100.00
62948;BME280;51940;52.126;-0.994;2023-02-28T01:39:51;102361.09;;;2.58;100.00
62948;BME280;51940;52.126;-0.994;2023-02-28T01:42:17;102357.95;;;2.59;100.00
62948;BME280;51940;52.126;-0.994;2023-02-28T01:44:57;102360.99;;;2.60;100.00
62948;BME280;51940;52.126;-0.994;2023-02-28T01:47:23;102364.02;;;2.61;100.00
62948;BME280;51940;52.126;-0.994;2023-02-28T01:49:50;102360.35;;;2.62;100.00
62948;BME280;51940;52.126;-0.994;2023-02-28T01:52:16;102361.63;;;2.63;100.00
62948;BME280;51940;52.126;-0.994;2023-02-28T01:54:47;102363.61;;;2.64;100.00
62948;BME280;51940;52.126;-0.994;2023-02-28T01:57:16;102363.30;;;2.65;100.00
62948;BME280;51940;52.126;-0.994;2023-02-28T01:59:52;102367.25;;;2.67;100.00
62948;BME280;51940;52.126;-0.994;2023-02-28T02:02:20;102367.13;;;2.68;100.00
62948;BME280;51940;52.126;-0.994;2023-02-28T02:04:51;102369.12;;;2.69;100.00
62948;BME280;51940;52.126;-0.994;2023-02-28T02:07:18;102374.45;;;2.71;100.00
62948;BME280;51940;52.126;-0.994;2023-02-28T02:09:44;102370.09;;;2.72;100.00
62948;BME280;51940;52.126;-0.994;2023-02-28T02:14:57;102369.17;;;2.75;100.00
62948;BME280;51940;52.126;-0.994;2023-02-28T02:35:11;102355.94;;;2.83;100.00
62948;BME280;51940;52.126;-0.994;2023-02-28T02:40:13;102357.17;;;2.83;100.00
62948;BME280;51940;52.126;-0.994;2023-02-28T02:47:45;102349.11;;;2.85;100.00
62948;BME280;51940;52.126;-0.994;2023-02-28T02:50:12;102346.13;;;2.85;100.00
62948;BME280;51940;52.126;-0.994;2023-02-28T02:52:40;102346.13;;;2.85;100.00
62948;BME280;51940;52.126;-0.994;2023-02-28T02:55:08;102344.90;;;2.85;100.00
62948;BME280;51940;52.126;-0.994;2023-02-28T02:57:46;102342.65;;;2.87;100.00
62948;BME280;51940;52.126;-0.994;2023-02-28T03:00:13;102342.14;;;2.87;100.00
62948;BME280;51940;52.126;-0.994;2023-02-28T03:02:40;102342.67;;;2.87;100.00
62948;BME280;51940;52.126;-0.994;2023-02-28T03:05:08;102342.86;;;2.88;100.00
62948;BME280;51940;52.126;-0.994;2023-02-28T03:07:38;102343.08;;;2.89;100.00
62948;BME280;51940;52.126;-0.994;2023-02-28T03:10:25;102337.27;;;2.89;100.00
62948;BME280;51940;52.126;-0.994;2023-02-28T03:12:49;102335.06;;;2.91;100.00
62948;BME280;51940;52.126;-0.994;2023-02-28T03:15:23;102330.14;;;2.91;100.00
62948;BME280;51940;52.126;-0.994;2023-02-28T03:17:53;102329.45;;;2.91;100.00
62948;BME280;51940;52.126;-0.994;2023-02-28T03:20:40;102326.28;;;2.91;100.00
62948;BME280;51940;52.126;-0.994;2023-02-28T03:23:19;102332.64;;;2.92;100.00
62948;BME280;51940;52.126;-0.994;2023-02-28T03:26:02;102331.94;;;2.92;100.00
62948;BME280;51940;52.126;-0.994;2023-02-28T03:31:03;102334.27;;;2.93;100.00
62948;BME280;51940;52.126;-0.994;2023-02-28T03:33:42;102337.05;;;2.92;100.00
62948;BME280;51940;52.126;-0.994;2023-02-28T03:36:10;102334.44;;;2.93;100.00
62948;BME280;51940;52.126;-0.994;2023-02-28T03:38:48;102332.86;;;2.93;100.00
62948;BME280;51940;52.126;-0.994;2023-02-28T03:41:37;102328.62;;;2.93;100.00
62948;BME280;51940;52.126;-0.994;2023-02-28T03:44:23;102331.30;;;2.93;100.00
62948;BME280;51940;52.126;-0.994;2023-02-28T03:46:48;102324.95;;;2.94;100.00
62948;BME280;51940;52.126;-0.994;2023-02-28T03:51:43;102323.95;;;2.95;100.00
62948;BME280;51940;52.126;-0.994;2023-02-28T03:54:15;102324.68;;;2.96;100.00
62948;BME280;51940;52.126;-0.994;2023-02-28T03:56:55;102320.81;;;2.96;100.00
62948;BME280;51940;52.126;-0.994;2023-02-28T04:01:50;102323.63;;;2.96;100.00
62948;BME280;51940;52.126;-0.994;2023-02-28T04:04:17;102320.98;;;2.96;100.00
62948;BME280;51940;52.126;-0.994;2023-02-28T04:06:43;102329.28;;;2.97;100.00
62948;BME280;51940;52.126;-0.994;2023-02-28T04:09:10;102325.75;;;2.96;100.00
62948;BME280;51940;52.126;-0.994;2023-02-28T04:11:39;102327.34;;;2.96;100.00
62948;BME280;51940;52.126;-0.994;2023-02-28T04:14:05;102329.64;;;2.97;100.00
62948;BME280;51940;52.126;-0.994;2023-02-28T04:16:31;102330.40;;;2.98;100.00
62948;BME280;51940;52.126;-0.994;2023-02-28T04:18:57;102333.64;;;2.99;100.00
62948;BME280;51940;52.126;-0.994;2023-02-28T04:21:30;102337.94;;;3.01;100.00
62948;BME280;51940;52.126;-0.994;2023-02-28T04:23:56;102338.89;;;3.03;100.00
62948;BME280;51940;52.126;-0.994;2023-02-28T04:26:33;102343.01;;;3.05;100.00
62948;BME280;51940;52.126;-0.994;2023-02-28T04:28:59;102345.89;;;3.07;100.00
62948;BME280;51940;52.126;-0.994;2023-02-28T04:31:25;102346.86;;;3.08;100.00
62948;BME280;51940;52.126;-0.994;2023-02-28T04:33:50;102345.55;;;3.11;100.00
62948;BME280;51940;52.126;-0.994;2023-02-28T04:36:15;102346.13;;;3.13;100.00
62948;BME280;51940;52.126;-0.994;2023-02-28T04:38:42;102342.84;;;3.15;100.00
62948;BME280;51940;52.126;-0.994;2023-02-28T04:41:08;102348.33;;;3.16;100.00
62948;BME280;51940;52.126;-0.994;2023-02-28T04:43:33;102346.42;;;3.16;100.00
62948;BME280;51940;52.126;-0.994;2023-02-28T04:46:00;102352.27;;;3.17;100.00
62948;BME280;51940;52.126;-0.994;2023-02-28T04:48:29;102350.17;;;3.17;100.00
62948;BME280;51940;52.126;-0.994;2023-02-28T04:51:00;102350.02;;;3.18;100.00
62948;BME280;51940;52.126;-0.994;2023-02-28T04:53:27;102356.73;;;3.18;100.00
62948;BME280;51940;52.126;-0.994;2023-02-28T04:55:53;102356.57;;;3.18;100.00
62948;BME280;51940;52.126;-0.994;2023-02-28T04:58:18;102352.67;;;3.18;100.00
62948;BME280;51940;52.126;-0.994;2023-02-28T05:00:43;102348.58;;;3.17;100.00
62948;BME280;51940;52.126;-0.994;2023-02-28T05:03:09;102352.43;;;3.17;100.00
62948;BME280;51940;52.126;-0.994;2023-02-28T05:05:34;102349.26;;;3.17;100.00
62948;BME280;51940;52.126;-0.994;2023-02-28T05:08:00;102352.04;;;3.16;100.00
62948;BME280;51940;52.126;-0.994;2023-02-28T05:10:25;102355.36;;;3.15;100.00
62948;BME280;51940;52.126;-0.994;2023-02-28T05:12:50;102356.59;;;3.15;100.00
62948;BME280;51940;52.126;-0.994;2023-02-28T05:15:16;102358.67;;;3.14;100.00
62948;BME280;51940;52.126;-0.994;2023-02-28T05:17:41;102361.84;;;3.14;100.00
62948;BME280;51940;52.126;-0.994;2023-02-28T05:20:07;102364.65;;;3.13;100.00
62948;BME280;51940;52.126;-0.994;2023-02-28T05:22:33;102362.88;;;3.13;100.00
62948;BME280;51940;52.126;-0.994;2023-02-28T05:24:59;102359.72;;;3.14;100.00
62948;BME280;51940;52.126;-0.994;2023-02-28T05:27:24;102353.19;;;3.13;100.00
62948;BME280;51940;52.126;-0.994;2023-02-28T05:29:50;102359.54;;;3.13;100.00
62948;BME280;51940;52.126;-0.994;2023-02-28T05:32:15;102356.20;;;3.14;100.00
62948;BME280;51940;52.126;-0.994;2023-02-28T05:34:40;102359.55;;;3.14;100.00
62948;BME280;51940;52.126;-0.994;2023-02-28T05:37:06;102362.22;;;3.14;100.00
62948;BME280;51940;52.126;-0.994;2023-02-28T05:39:35;102364.72;;;3.15;100.00
62948;BME280;51940;52.126;-0.994;2023-02-28T05:42:01;102363.86;;;3.16;100.00
62948;BME280;51940;52.126;-0.994;2023-02-28T05:44:26;102363.73;;;3.17;100.00
62948;BME280;51940;52.126;-0.994;2023-02-28T05:46:51;102363.59;;;3.17;100.00
62948;BME280;51940;52.126;-0.994;2023-02-28T05:49:16;102362.55;;;3.18;100.00
62948;BME280;51940;52.126;-0.994;2023-02-28T05:51:42;102360.98;;;3.18;100.00
62948;BME280;51940;52.126;-0.994;2023-02-28T05:54:07;102360.84;;;3.19;100.00
62948;BME280;51940;52.126;-0.994;2023-02-28T05:56:33;102364.02;;;3.20;100.00
62948;BME280;51940;52.126;-0.994;2023-02-28T05:59:04;102362.11;;;3.21;100.00
62948;BME280;51940;52.126;-0.994;2023-02-28T06:01:34;102364.06;;;3.21;100.00
62948;BME280;51940;52.126;-0.994;2023-02-28T06:04:00;102369.03;;;3.22;100.00
62948;BME280;51940;52.126;-0.994;2023-02-28T06:06:26;102372.58;;;3.22;100.00
62948;BME280;51940;52.126;-0.994;2023-02-28T06:08:51;102377.91;;;3.24;100.00
62948;BME280;51940;52.126;-0.994;2023-02-28T06:11:17;102375.98;;;3.24;100.00
62948;BME280;51940;52.126;-0.994;2023-02-28T06:13:44;102382.91;;;3.25;100.00
62948;BME280;51940;52.126;-0.994;2023-02-28T06:16:10;102385.41;;;3.25;100.00
62948;BME280;51940;52.126;-0.994;2023-02-28T06:18:35;102383.48;;;3.26;100.00
62948;BME280;51940;52.126;-0.994;2023-02-28T06:21:01;102381.72;;;3.26;100.00
62948;BME280;51940;52.126;-0.994;2023-02-28T06:23:26;102386.15;;;3.26;100.00
62948;BME280;51940;52.126;-0.994;2023-02-28T06:25:52;102381.92;;;3.26;100.00
62948;BME280;51940;52.126;-0.994;2023-02-28T06:28:18;102386.52;;;3.27;100.00
62948;BME280;51940;52.126;-0.994;2023-02-28T06:30:43;102384.56;;;3.26;100.00
62948;BME280;51940;52.126;-0.994;2023-02-28T06:33:10;102380.15;;;3.26;100.00
62948;BME280;51940;52.126;-0.994;2023-02-28T06:35:35;102383.50;;;3.26;100.00
62948;BME280;51940;52.126;-0.994;2023-02-28T06:38:00;102383.89;;;3.27;100.00
62948;BME280;51940;52.126;-0.994;2023-02-28T06:40:26;102382.66;;;3.28;100.00
62948;BME280;51940;52.126;-0.994;2023-02-28T06:42:51;102382.31;;;3.28;100.00
62948;BME280;51940;52.126;-0.994;2023-02-28T06:45:17;102386.03;;;3.28;100.00
62948;BME280;51940;52.126;-0.994;2023-02-28T06:47:42;102383.73;;;3.28;100.00
62948;BME280;51940;52.126;-0.994;2023-02-28T06:50:10;102388.73;;;3.30;100.00
62948;BME280;51940;52.126;-0.994;2023-02-28T06:52:36;102387.55;;;3.31;100.00
62948;BME280;51940;52.126;-0.994;2023-02-28T06:55:03;102387.74;;;3.32;100.00
62948;BME280;51940;52.126;-0.994;2023-02-28T06:57:29;102385.68;;;3.33;100.00
62948;BME280;51940;52.126;-0.994;2023-02-28T06:59:58;102391.55;;;3.34;100.00
62948;BME280;51940;52.126;-0.994;2023-02-28T07:02:24;102398.80;;;3.34;100.00
62948;BME280;51940;52.126;-0.994;2023-02-28T07:04:50;102397.57;;;3.34;100.00
62948;BME280;51940;52.126;-0.994;2023-02-28T07:07:15;102397.60;;;3.35;100.00
62948;BME280;51940;52.126;-0.994;2023-02-28T07:09:41;102396.23;;;3.36;100.00
62948;BME280;51940;52.126;-0.994;2023-02-28T07:12:07;102405.94;;;3.37;100.00
62948;BME280;51940;52.126;-0.994;2023-02-28T07:14:32;102404.36;;;3.37;100.00
62948;BME280;51940;52.126;-0.994;2023-02-28T07:16:57;102404.55;;;3.38;100.00
62948;BME280;51940;52.126;-0.994;2023-02-28T07:19:23;102408.65;;;3.39;100.00
62948;BME280;51940;52.126;-0.994;2023-02-28T07:21:48;102407.09;;;3.40;100.00
62948;BME280;51940;52.126;-0.994;2023-02-28T07:24:13;102404.31;;;3.41;100.00
62948;BME280;51940;52.126;-0.994;2023-02-28T07:26:40;102404.02;;;3.43;100.00
62948;BME280;51940;52.126;-0.994;2023-02-28T07:29:06;102403.88;;;3.43;100.00
62948;BME280;51940;52.126;-0.994;2023-02-28T07:31:31;102403.55;;;3.44;100.00
62948;BME280;51940;52.126;-0.994;2023-02-28T07:33:56;102400.60;;;3.46;100.00
62948;BME280;51940;52.126;-0.994;2023-02-28T07:36:21;102401.21;;;3.48;100.00
62948;BME280;51940;52.126;-0.994;2023-02-28T07:38:47;102401.95;;;3.49;100.00
62948;BME280;51940;52.126;-0.994;2023-02-28T07:41:16;102399.64;;;3.52;100.00
62948;BME280;51940;52.126;-0.994;2023-02-28T07:43:42;102403.41;;;3.55;100.00
62948;BME280;51940;52.126;-0.994;2023-02-28T07:46:10;102403.84;;;3.57;100.00
62948;BME280;51940;52.126;-0.994;2023-02-28T07:48:36;102402.66;;;3.58;100.00
62948;BME280;51940;52.126;-0.994;2023-02-28T07:51:01;102404.70;;;3.60;100.00
62948;BME280;51940;52.126;-0.994;2023-02-28T07:53:27;102407.60;;;3.63;100.00
62948;BME280;51940;52.126;-0.994;2023-02-28T07:55:56;102408.40;;;3.66;100.00
62948;BME280;51940;52.126;-0.994;2023-02-28T07:58:22;102413.14;;;3.69;100.00
62948;BME280;51940;52.126;-0.994;2023-02-28T08:00:48;102411.59;;;3.71;100.00
62948;BME280;51940;52.126;-0.994;2023-02-28T08:03:13;102412.55;;;3.73;100.00
62948;BME280;51940;52.126;-0.994;2023-02-28T08:05:39;102412.13;;;3.75;100.00
62948;BME280;51940;52.126;-0.994;2023-02-28T08:08:05;102407.28;;;3.78;100.00
62948;BME280;51940;52.126;-0.994;2023-02-28T08:10:30;102405.60;;;3.81;100.00
62948;BME280;51940;52.126;-0.994;2023-02-28T08:12:56;102406.21;;;3.83;100.00
62948;BME280;51940;52.126;-0.994;2023-02-28T08:15:21;102405.86;;;3.88;100.00
62948;BME280;51940;52.126;-0.994;2023-02-28T08:17:46;102411.31;;;3.92;100.00
62948;BME280;51940;52.126;-0.994;2023-02-28T08:20:11;102411.41;;;3.95;100.00
62948;BME280;51940;52.126;-0.994;2023-02-28T08:22:38;102411.53;;;3.99;100.00
62948;BME280;51940;52.126;-0.994;2023-02-28T08:25:03;102411.95;;;4.01;100.00
62948;BME280;51940;52.126;-0.994;2023-02-28T08:27:29;102411.66;;;4.02;100.00
62948;BME280;51940;52.126;-0.994;2023-02-28T08:29:54;102407.98;;;4.03;100.00
62948;BME280;51940;52.126;-0.994;2023-02-28T08:32:20;102409.52;;;4.02;100.00
62948;BME280;51940;52.126;-0.994;2023-02-28T08:34:45;102411.23;;;4.00;100.00
62948;BME280;51940;52.126;-0.994;2023-02-28T08:37:10;102408.02;;;4.00;100.00
62948;BME280;51940;52.126;-0.994;2023-02-28T08:39:36;102407.45;;;4.03;100.00
62948;BME280;51940;52.126;-0.994;2023-02-28T08:42:05;102404.26;;;4.08;100.00
62948;BME280;51940;52.126;-0.994;2023-02-28T08:44:30;102401.91;;;4.11;100.00
62948;BME280;51940;52.126;-0.994;2023-02-28T08:46:55;102399.98;;;4.11;100.00
62948;BME280;51940;52.126;-0.994;2023-02-28T08:49:20;102401.39;;;4.11;100.00
62948;BME280;51940;52.126;-0.994;2023-02-28T08:51:46;102402.10;;;4.11;100.00
62948;BME280;51940;52.126;-0.994;2023-02-28T08:54:13;102401.19;;;4.10;100.00
62948;BME280;51940;52.126;-0.994;2023-02-28T08:56:40;102405.89;;;4.09;100.00
62948;BME280;51940;52.126;-0.994;2023-02-28T08:59:06;102406.63;;;4.10;100.00
62948;BME280;51940;52.126;-0.994;2023-02-28T09:01:31;102406.69;;;4.11;100.00
62948;BME280;51940;52.126;-0.994;2023-02-28T09:03:57;102402.80;;;4.11;100.00
62948;BME280;51940;52.126;-0.994;2023-02-28T09:06:25;102399.90;;;4.15;100.00
62948;BME280;51940;52.126;-0.994;2023-02-28T09:08:51;102403.29;;;4.20;100.00
62948;BME280;51940;52.126;-0.994;2023-02-28T09:11:19;102402.34;;;4.29;100.00
62948;BME280;51940;52.126;-0.994;2023-02-28T09:13:46;102394.98;;;4.46;100.00
62948;BME280;51940;52.126;-0.994;2023-02-28T09:16:13;102393.45;;;4.65;100.00
62948;BME280;51940;52.126;-0.994;2023-02-28T09:18:39;102389.01;;;4.86;100.00
62948;BME280;51940;52.126;-0.994;2023-02-28T09:21:05;102388.05;;;4.95;100.00
62948;BME280;51940;52.126;-0.994;2023-02-28T09:23:30;102384.64;;;4.94;100.00
62948;BME280;51940;52.126;-0.994;2023-02-28T09:25:56;102383.38;;;4.93;100.00
62948;BME280;51940;52.126;-0.994;2023-02-28T09:28:22;102383.73;;;4.93;100.00
62948;BME280;51940;52.126;-0.994;2023-02-28T09:30:49;102381.34;;;4.95;100.00
62948;BME280;51940;52.126;-0.994;2023-02-28T09:33:14;102381.81;;;4.94;100.00
62948;BME280;51940;52.126;-0.994;2023-02-28T09:35:41;102385.77;;;4.90;100.00
62948;BME280;51940;52.126;-0.994;2023-02-28T09:38:08;102381.27;;;4.87;100.00
62948;BME280;51940;52.126;-0.994;2023-02-28T09:40:35;102385.73;;;4.83;100.00
62948;BME280;51940;52.126;-0.994;2023-02-28T09:43:01;102387.95;;;4.80;100.00
62948;BME280;51940;52.126;-0.994;2023-02-28T09:45:34;102387.31;;;4.77;100.00
62948;BME280;51940;52.126;-0.994;2023-02-28T09:48:03;102386.52;;;4.74;100.00
62948;BME280;51940;52.126;-0.994;2023-02-28T09:50:30;102388.55;;;4.72;100.00
62948;BME280;51940;52.126;-0.994;2023-02-28T09:52:59;102391.11;;;4.69;100.00
62948;BME280;51940;52.126;-0.994;2023-02-28T09:58:01;102395.52;;;4.69;100.00
62948;BME280;51940;52.126;-0.994;2023-02-28T10:00:30;102398.75;;;4.70;100.00
62948;BME280;51940;52.126;-0.994;2023-02-28T10:03:01;102395.73;;;4.70;100.00
62948;BME280;51940;52.126;-0.994;2023-02-28T10:08:05;102401.35;;;4.69;100.00
62948;BME280;51940;52.126;-0.994;2023-02-28T10:10:43;102406.79;;;4.68;100.00
62948;BME280;51940;52.126;-0.994;2023-02-28T10:15:58;102403.05;;;4.67;100.00
62948;BME280;51940;52.126;-0.994;2023-02-28T10:18:25;102401.55;;;4.69;100.00
62948;BME280;51940;52.126;-0.994;2023-02-28T10:20:52;102405.06;;;4.74;100.00
62948;BME280;51940;52.126;-0.994;2023-02-28T10:26:16;102394.89;;;4.93;100.00
62948;BME280;51940;52.126;-0.994;2023-02-28T10:28:42;102395.70;;;5.02;100.00
62948;BME280;51940;52.126;-0.994;2023-02-28T10:31:11;102395.40;;;5.10;100.00
62948;BME280;51940;52.126;-0.994;2023-02-28T10:33:39;102390.65;;;5.17;100.00
62948;BME280;51940;52.126;-0.994;2023-02-28T10:36:04;102392.09;;;5.23;100.00
62948;BME280;51940;52.126;-0.994;2023-02-28T10:38:35;102390.70;;;5.30;100.00
62948;BME280;51940;52.126;-0.994;2023-02-28T10:41:05;102388.89;;;5.41;100.00
62948;BME280;51940;52.126;-0.994;2023-02-28T10:43:31;102386.48;;;5.44;100.00
62948;BME280;51940;52.126;-0.994;2023-02-28T10:58:31;102384.35;;;5.37;100.00
62948;BME280;51940;52.126;-0.994;2023-02-28T11:00:57;102376.31;;;5.34;100.00
62948;BME280;51940;52.126;-0.994;2023-02-28T11:03:29;102376.49;;;5.34;100.00
62948;BME280;51940;52.126;-0.994;2023-02-28T11:05:55;102376.36;;;5.36;100.00
62948;BME280;51940;52.126;-0.994;2023-02-28T11:08:21;102377.67;;;5.38;100.00
62948;BME280;51940;52.126;-0.994;2023-02-28T11:10:47;102377.41;;;5.41;100.00
62948;BME280;51940;52.126;-0.994;2023-02-28T11:13:17;102374.61;;;5.49;100.00
62948;BME280;51940;52.126;-0.994;2023-02-28T11:15:52;102370.75;;;5.62;100.00
62948;BME280;51940;52.126;-0.994;2023-02-28T11:18:23;102365.11;;;5.70;100.00
62948;BME280;51940;52.126;-0.994;2023-02-28T11:20:50;102365.05;;;5.74;100.00
62948;BME280;51940;52.126;-0.994;2023-02-28T11:23:16;102368.45;;;5.75;100.00
62948;BME280;51940;52.126;-0.994;2023-02-28T11:25:47;102367.07;;;5.77;100.00
62948;BME280;51940;52.126;-0.994;2023-02-28T11:28:25;102363.54;;;5.77;100.00
62948;BME280;51940;52.126;-0.994;2023-02-28T11:31:36;102362.52;;;5.79;100.00
62948;BME280;51940;52.126;-0.994;2023-02-28T11:33:49;102359.54;;;5.81;100.00
62948;BME280;51940;52.126;-0.994;2023-02-28T11:36:18;102354.23;;;5.86;100.00
62948;BME280;51940;52.126;-0.994;2023-02-28T11:38:44;102351.27;;;5.93;100.00
62948;BME280;51940;52.126;-0.994;2023-02-28T11:41:17;102347.96;;;5.96;100.00
62948;BME280;51940;52.126;-0.994;2023-02-28T11:51:31;102343.48;;;6.01;100.00
62948;BME280;51940;52.126;-0.994;2023-02-28T11:56:46;102339.77;;;6.01;100.00
62948;BME280;51940;52.126;-0.994;2023-02-28T12:09:54;102324.38;;;6.60;100.00
62948;BME280;51940;52.126;-0.994;2023-02-28T12:14:59;102309.82;;;6.83;100.00
62948;BME280;51940;52.126;-0.994;2023-02-28T12:22:37;102298.86;;;6.76;100.00
62948;BME280;51940;52.126;-0.994;2023-02-28T12:27:42;102289.45;;;6.75;100.00
62948;BME280;51940;52.126;-0.994;2023-02-28T12:30:43;102287.68;;;6.75;100.00
62948;BME280;51940;52.126;-0.994;2023-02-28T12:33:06;102284.30;;;6.75;100.00
62948;BME280;51940;52.126;-0.994;2023-02-28T12:35:54;102283.05;;;6.75;100.00
62948;BME280;51940;52.126;-0.994;2023-02-28T12:40:56;102274.27;;;6.78;100.00
62948;BME280;51940;52.126;-0.994;2023-02-28T12:43:25;102274.19;;;6.83;100.00
62948;BME280;51940;52.126;-0.994;2023-02-28T12:46:00;102268.09;;;6.88;100.00
62948;BME280;51940;52.126;-0.994;2023-02-28T12:48:31;102260.98;;;6.97;100.00
62948;BME280;51940;52.126;-0.994;2023-02-28T12:51:04;102258.96;;;7.10;100.00
62948;BME280;51940;52.126;-0.994;2023-02-28T12:59:51;102259.65;;;7.27;100.00
62948;BME280;51940;52.126;-0.994;2023-02-28T13:07:40;102235.77;;;7.50;100.00
62948;BME280;51940;52.126;-0.994;2023-02-28T13:10:09;102230.48;;;7.62;100.00
62948;BME280;51940;52.126;-0.994;2023-02-28T13:12:36;102235.42;;;7.61;100.00
62948;BME280;51940;52.126;-0.994;2023-02-28T13:15:20;102224.83;;;7.53;100.00
62948;BME280;51940;52.126;-0.994;2023-02-28T13:17:53;102222.62;;;7.51;100.00
62948;BME280;51940;52.126;-0.994;2023-02-28T13:20:23;102225.08;;;7.48;100.00
62948;BME280;51940;52.126;-0.994;2023-02-28T13:22:51;102216.60;;;7.41;100.00
62948;BME280;51940;52.126;-0.994;2023-02-28T13:28:00;102210.24;;;7.43;100.00
62948;BME280;51940;52.126;-0.994;2023-02-28T13:33:23;102205.77;;;7.72;100.00
62948;BME280;51940;52.126;-0.994;2023-02-28T13:36:00;102200.94;;;7.79;100.00
62948;BME280;51940;52.126;-0.994;2023-02-28T13:38:41;102200.79;;;7.81;100.00
62948;BME280;51940;52.126;-0.994;2023-02-28T13:46:29;102193.40;;;7.86;100.00
62948;BME280;51940;52.126;-0.994;2023-02-28T13:48:56;102193.32;;;7.92;100.00
62948;BME280;51940;52.126;-0.994;2023-02-28T13:51:38;102197.74;;;7.91;100.00
62948;BME280;51940;52.126;-0.994;2023-02-28T13:54:14;102190.65;;;7.80;100.00
62948;BME280;51940;52.126;-0.994;2023-02-28T13:56:47;102196.02;;;7.72;100.00
62948;BME280;51940;52.126;-0.994;2023-02-28T13:59:21;102193.60;;;7.66;100.00
62948;BME280;51940;52.126;-0.994;2023-02-28T14:02:03;102195.36;;;7.64;100.00
62948;BME280;51940;52.126;-0.994;2023-02-28T14:07:02;102187.77;;;7.57;100.00
62948;BME280;51940;52.126;-0.994;2023-02-28T14:09:29;102190.46;;;7.60;100.00
62948;BME280;51940;52.126;-0.994;2023-02-28T14:11:56;102186.82;;;7.63;100.00
62948;BME280;51940;52.126;-0.994;2023-02-28T14:16:59;102178.64;;;7.62;100.00
62948;BME280;51940;52.126;-0.994;2023-02-28T14:19:28;102180.63;;;7.65;100.00
62948;BME280;51940;52.126;-0.994;2023-02-28T14:34:46;102167.58;;;7.60;100.00
62948;BME280;51940;52.126;-0.994;2023-02-28T14:37:19;102161.88;;;7.59;100.00
62948;BME280;51940;52.126;-0.994;2023-02-28T14:39:45;102160.45;;;7.59;100.00
62948;BME280;51940;52.126;-0.994;2023-02-28T14:45:19;102160.14;;;7.61;100.00
62948;BME280;51940;52.126;-0.994;2023-02-28T14:47:45;102155.45;;;7.57;100.00
62948;BME280;51940;52.126;-0.994;2023-02-28T14:50:18;102152.09;;;7.58;100.00
62948;BME280;51940;52.126;-0.994;2023-02-28T14:52:46;102151.79;;;7.61;100.00
62948;BME280;51940;52.126;-0.994;2023-02-28T14:55:14;102153.60;;;7.62;100.00
62948;BME280;51940;52.126;-0.994;2023-02-28T14:57:50;102153.34;;;7.59;100.00
62948;BME280;51940;52.126;-0.994;2023-02-28T15:00:21;102154.39;;;7.57;100.00